< < Back
Terminal Aerodrome Forecast


Current Version              Previous Versions:   1  2  3  4  5  6  7  8  9  

Terminal Aerodrome Forecast

888
FTUS42 KTAE 231100
TAFVLD
TAF
KVLD 231122Z 2312/2412 32005KT P6SM SCT040
     FM240700 00000KT 3SM BR BKN008=

Latest METAR

685
SAUS70 KWBC 240400
MTRVLD
METAR KVLD 240353Z AUTO 00000KT 6SM HZ CLR 19/17 A2994 RMK AO2 SLP145
T01940167


USA.gov is the U.S. government's official web portal to all federal, state and local government web resources and services.